createdAt,value
2022-08-29T00:00:18.508Z,13.90
2022-08-29T00:01:21.306Z,13.33
2022-08-29T00:02:24.764Z,14.57
2022-08-29T00:03:27.465Z,16.13
2022-08-29T00:04:31.806Z,14.13
2022-08-29T00:05:36.124Z,16.60
2022-08-29T00:06:37.831Z,16.80
2022-08-29T00:07:39.445Z,18.50
2022-08-29T00:08:41.067Z,20.33
2022-08-29T00:09:42.825Z,14.70
2022-08-29T00:10:44.622Z,15.40
2022-08-29T00:11:46.588Z,18.00
2022-08-29T00:12:48.824Z,14.70
2022-08-29T00:13:50.511Z,16.90
2022-08-29T00:14:52.004Z,16.57
2022-08-29T00:15:53.575Z,15.33
2022-08-29T00:16:55.105Z,15.30
2022-08-29T00:17:56.698Z,17.17
2022-08-29T00:18:58.410Z,19.20
2022-08-29T00:19:59.968Z,16.83
2022-08-29T00:21:02.505Z,16.00
2022-08-29T00:22:03.987Z,15.87
2022-08-29T00:23:07.074Z,16.10
2022-08-29T00:24:08.925Z,18.57
2022-08-29T00:25:12.552Z,14.60
2022-08-29T00:26:14.194Z,22.53
2022-08-29T00:27:16.153Z,25.40
2022-08-29T00:28:17.725Z,16.30
2022-08-29T00:29:19.240Z,17.77
2022-08-29T00:30:22.134Z,13.40
2022-08-29T00:31:23.654Z,13.00
2022-08-29T00:32:25.500Z,19.50
2022-08-29T00:33:27.116Z,13.30
2022-08-29T00:34:28.623Z,13.37
2022-08-29T00:35:36.203Z,13.13
2022-08-29T00:36:37.839Z,12.80
2022-08-29T00:37:40.563Z,14.00
2022-08-29T00:38:42.202Z,13.53
2022-08-29T00:39:44.912Z,18.07
2022-08-29T00:40:51.396Z,12.53
2022-08-29T00:41:53.641Z,16.77
2022-08-29T00:42:55.536Z,13.60
2022-08-29T00:43:57.079Z,20.67
2022-08-29T00:44:58.610Z,14.30
2022-08-29T00:46:11.826Z,17.37
2022-08-29T00:47:19.508Z,13.93
2022-08-29T00:48:21.457Z,17.20
2022-08-29T00:49:23.154Z,13.20
2022-08-29T00:50:40.877Z,15.43
2022-08-29T00:51:42.461Z,16.97
2022-08-29T00:52:48.002Z,21.37
2022-08-29T00:53:57.679Z,17.97
2022-08-29T00:55:02.278Z,11.77
2022-08-29T00:56:07.027Z,11.60
2022-08-29T00:57:09.412Z,13.03
2022-08-29T00:58:18.179Z,21.63
2022-08-29T00:59:28.246Z,18.87
2022-08-29T01:00:31.836Z,16.17
2022-08-29T01:01:33.463Z,17.03
2022-08-29T01:02:40.262Z,13.63
2022-08-29T01:03:43.003Z,17.80
2022-08-29T01:04:45.632Z,16.00
2022-08-29T01:05:48.633Z,16.53
2022-08-29T01:06:51.578Z,17.10
2022-08-29T01:07:53.272Z,13.73
2022-08-29T01:08:57.762Z,18.07
2022-08-29T01:10:00.261Z,13.73
2022-08-29T01:11:36.433Z,12.97
2022-08-29T01:12:38.405Z,13.43
2022-08-29T01:13:44.390Z,17.13
2022-08-29T01:14:52.539Z,16.53
2022-08-29T01:15:57.015Z,15.63
2022-08-29T01:16:59.560Z,19.77
2022-08-29T01:18:03.759Z,14.47
2022-08-29T01:19:24.301Z,15.50
2022-08-29T01:20:32.270Z,15.83
2022-08-29T01:21:55.869Z,16.40
2022-08-29T01:23:06.281Z,13.23
2022-08-29T01:24:35.420Z,17.50
2022-08-29T01:25:40.964Z,16.10
2022-08-29T01:26:45.388Z,13.80
2022-08-29T01:27:52.622Z,15.67
2022-08-29T01:28:54.625Z,20.93
2022-08-29T01:29:57.018Z,15.63
2022-08-29T01:31:01.182Z,14.83
2022-08-29T01:32:03.185Z,16.47
2022-08-29T01:33:04.966Z,15.83
2022-08-29T01:34:06.694Z,17.87
2022-08-29T01:35:08.959Z,16.17
2022-08-29T01:36:14.126Z,15.43
2022-08-29T01:37:17.032Z,16.43
2022-08-29T01:38:27.643Z,20.83
2022-08-29T01:39:36.341Z,18.37
2022-08-29T01:40:38.275Z,19.27
2022-08-29T01:41:41.712Z,14.30
2022-08-29T01:42:44.018Z,17.00
2022-08-29T01:43:49.123Z,16.13
2022-08-29T01:44:53.450Z,15.03
2022-08-29T01:45:56.298Z,14.93
2022-08-29T01:47:02.728Z,15.83
2022-08-29T01:48:05.109Z,15.70
2022-08-29T01:49:09.793Z,15.20
2022-08-29T01:50:14.382Z,14.00
2022-08-29T01:51:16.372Z,14.97
2022-08-29T01:52:18.547Z,14.70
2022-08-29T01:53:20.018Z,13.40
2022-08-29T01:54:21.810Z,13.90
2022-08-29T01:55:25.275Z,18.90
2022-08-29T01:56:31.021Z,13.50
2022-08-29T01:57:33.181Z,14.47
2022-08-29T01:58:34.757Z,18.23
2022-08-29T01:59:37.041Z,13.13
2022-08-29T02:00:39.026Z,17.60
2022-08-29T02:01:44.876Z,19.00
2022-08-29T02:02:46.519Z,13.20
2022-08-29T02:03:48.519Z,20.13
2022-08-29T02:04:50.069Z,13.80
2022-08-29T02:05:51.561Z,17.43
2022-08-29T02:06:53.286Z,14.97
2022-08-29T02:07:54.778Z,11.60
2022-08-29T02:08:56.349Z,24.60
2022-08-29T02:09:57.882Z,15.27
2022-08-29T02:10:59.838Z,13.63
2022-08-29T02:12:07.268Z,13.43
2022-08-29T02:13:08.756Z,16.10
2022-08-29T02:14:19.369Z,16.13
2022-08-29T02:15:21.641Z,16.87
2022-08-29T02:16:26.007Z,17.03
2022-08-29T02:17:27.919Z,14.90
2022-08-29T02:18:29.511Z,17.90
2022-08-29T02:19:32.627Z,13.30
2022-08-29T02:20:34.180Z,14.47
2022-08-29T02:21:35.962Z,13.80
2022-08-29T02:22:39.088Z,17.37
2022-08-29T02:23:41.911Z,15.40
2022-08-29T02:24:44.083Z,14.47
2022-08-29T02:25:47.557Z,16.40
2022-08-29T02:26:49.046Z,23.03
2022-08-29T02:27:52.230Z,14.73
2022-08-29T02:28:54.458Z,20.57
2022-08-29T02:29:56.401Z,15.43
2022-08-29T02:30:58.486Z,17.47
2022-08-29T02:32:00.073Z,19.43
2022-08-29T02:33:03.479Z,20.33
2022-08-29T02:34:10.063Z,18.03
2022-08-29T02:35:13.682Z,14.00
2022-08-29T02:36:15.328Z,16.43
2022-08-29T02:37:17.527Z,13.30
2022-08-29T02:38:19.953Z,24.07
2022-08-29T02:39:21.432Z,14.50
2022-08-29T02:40:24.674Z,13.77
2022-08-29T02:41:33.493Z,14.50
2022-08-29T02:42:35.043Z,16.77
2022-08-29T02:43:37.053Z,13.53
2022-08-29T02:44:38.513Z,20.80
2022-08-29T02:45:42.576Z,18.83
2022-08-29T02:46:44.271Z,14.30
2022-08-29T02:47:45.864Z,21.10
2022-08-29T02:48:59.886Z,21.10
2022-08-29T02:50:05.829Z,26.10
2022-08-29T02:51:07.376Z,17.10
2022-08-29T02:52:08.934Z,18.00
2022-08-29T02:53:11.914Z,15.07
2022-08-29T02:54:13.818Z,17.97
2022-08-29T02:55:17.783Z,18.97
2022-08-29T02:56:20.064Z,21.07
2022-08-29T02:57:21.568Z,14.33
2022-08-29T02:58:24.702Z,15.07
2022-08-29T02:59:27.761Z,16.77
2022-08-29T03:00:29.502Z,16.73
2022-08-29T03:01:31.294Z,15.30
2022-08-29T03:02:32.975Z,17.30
2022-08-29T03:03:35.180Z,19.17
2022-08-29T03:04:36.750Z,17.47
2022-08-29T03:05:38.476Z,14.10
2022-08-29T03:06:40.100Z,19.13
2022-08-29T03:07:42.581Z,15.80
2022-08-29T03:08:44.258Z,14.50
2022-08-29T03:09:45.838Z,15.70
2022-08-29T03:10:47.351Z,20.70
2022-08-29T03:11:49.113Z,15.30
2022-08-29T03:12:51.169Z,17.00
2022-08-29T03:13:57.497Z,20.90
2022-08-29T03:14:59.516Z,17.60
2022-08-29T03:16:05.183Z,16.03
2022-08-29T03:17:06.768Z,14.77
2022-08-29T03:18:08.316Z,18.10
2022-08-29T03:19:09.821Z,18.33
2022-08-29T03:20:13.458Z,16.80
2022-08-29T03:21:17.349Z,16.73
2022-08-29T03:22:19.155Z,17.47
2022-08-29T03:23:20.810Z,19.53
2022-08-29T03:24:25.012Z,22.90
2022-08-29T03:25:28.896Z,21.77
2022-08-29T03:26:30.549Z,22.10
2022-08-29T03:27:32.936Z,19.57
2022-08-29T03:28:34.535Z,22.03
2022-08-29T03:29:37.565Z,16.20
2022-08-29T03:30:40.064Z,22.70
2022-08-29T03:31:41.988Z,17.40
2022-08-29T03:32:44.016Z,20.27
2022-08-29T03:33:45.545Z,22.30
2022-08-29T03:34:47.265Z,16.40
2022-08-29T03:35:48.800Z,18.63
2022-08-29T03:36:52.024Z,16.00
2022-08-29T03:37:55.440Z,15.30
2022-08-29T03:38:57.001Z,19.87
2022-08-29T03:39:58.664Z,16.50
2022-08-29T03:41:00.179Z,17.37
2022-08-29T03:42:01.759Z,20.53
2022-08-29T03:43:03.474Z,19.47
2022-08-29T03:44:05.380Z,19.33
2022-08-29T03:45:10.634Z,26.40
2022-08-29T03:46:12.155Z,14.23
2022-08-29T03:47:14.234Z,18.50
2022-08-29T03:48:16.128Z,17.37
2022-08-29T03:49:17.671Z,27.10
2022-08-29T03:50:20.904Z,20.23
2022-08-29T03:51:22.682Z,17.80
2022-08-29T03:52:26.402Z,21.67
2022-08-29T03:53:28.056Z,19.90
2022-08-29T03:54:29.735Z,18.53
2022-08-29T03:55:31.351Z,20.17
2022-08-29T03:56:33.086Z,18.50
2022-08-29T03:57:34.823Z,16.47
2022-08-29T03:58:37.900Z,15.80
2022-08-29T03:59:39.524Z,22.13
2022-08-29T04:00:41.853Z,18.47
2022-08-29T04:01:44.863Z,27.63
2022-08-29T04:02:50.647Z,19.07
2022-08-29T04:03:53.336Z,21.70
2022-08-29T04:05:08.309Z,16.53
2022-08-29T04:06:10.880Z,19.23
2022-08-29T04:07:14.730Z,22.57
2022-08-29T04:08:16.426Z,18.33
2022-08-29T04:09:18.479Z,17.40
2022-08-29T04:10:27.112Z,22.73
2022-08-29T04:11:29.767Z,17.30
2022-08-29T04:12:31.324Z,19.43
2022-08-29T04:13:32.843Z,15.60
2022-08-29T04:14:35.338Z,15.07
2022-08-29T04:15:38.853Z,15.20
2022-08-29T04:16:40.366Z,15.20
2022-08-29T04:17:51.042Z,27.53
2022-08-29T04:18:54.902Z,18.63
2022-08-29T04:19:56.523Z,15.70
2022-08-29T04:21:02.431Z,18.47
2022-08-29T04:22:05.611Z,20.40
2022-08-29T04:23:07.927Z,16.13
2022-08-29T04:24:09.441Z,16.03
2022-08-29T04:25:13.370Z,17.53
2022-08-29T04:26:35.850Z,20.00
2022-08-29T04:27:38.698Z,19.83
2022-08-29T04:28:40.695Z,16.63
2022-08-29T04:29:42.218Z,15.33
2022-08-29T04:30:52.002Z,21.33
2022-08-29T04:31:54.602Z,14.30
2022-08-29T04:32:56.765Z,23.00
2022-08-29T04:33:58.308Z,21.57
2022-08-29T04:35:00.062Z,17.13
2022-08-29T04:36:06.030Z,17.17
2022-08-29T04:37:07.574Z,21.07
2022-08-29T04:38:09.356Z,15.07
2022-08-29T04:39:11.818Z,18.37
2022-08-29T04:40:18.517Z,17.70
2022-08-29T04:41:20.164Z,20.27
2022-08-29T04:42:21.764Z,23.10
2022-08-29T04:43:23.376Z,21.10
2022-08-29T04:44:24.900Z,17.60
2022-08-29T04:45:26.865Z,18.10
2022-08-29T04:46:28.919Z,17.20
2022-08-29T04:47:31.022Z,14.67
2022-08-29T04:48:33.026Z,18.90
2022-08-29T04:49:34.588Z,21.40
2022-08-29T04:50:36.102Z,18.23
2022-08-29T04:51:37.921Z,15.50
2022-08-29T04:52:40.190Z,17.23
2022-08-29T04:53:41.808Z,21.23
2022-08-29T04:54:43.571Z,17.83
2022-08-29T04:55:45.135Z,18.67
2022-08-29T04:56:47.497Z,23.10
2022-08-29T04:57:52.071Z,17.50
2022-08-29T04:58:53.640Z,17.20
2022-08-29T04:59:56.602Z,16.70
2022-08-29T05:00:58.771Z,20.87
2022-08-29T05:02:00.364Z,17.83
2022-08-29T05:03:02.490Z,20.70
2022-08-29T05:04:04.126Z,15.97
2022-08-29T05:05:06.588Z,18.90
2022-08-29T05:06:11.938Z,17.57
2022-08-29T05:07:14.618Z,19.70
2022-08-29T05:08:16.267Z,14.70
2022-08-29T05:09:17.839Z,17.83
2022-08-29T05:10:21.795Z,21.50
2022-08-29T05:11:26.111Z,17.93
2022-08-29T05:12:30.409Z,20.27
2022-08-29T05:13:32.308Z,17.63
2022-08-29T05:14:34.144Z,16.83
2022-08-29T05:15:38.480Z,22.23
2022-08-29T05:16:40.747Z,18.60
2022-08-29T05:17:42.842Z,19.60
2022-08-29T05:18:46.681Z,20.10
2022-08-29T05:19:49.217Z,17.77
2022-08-29T05:20:50.791Z,16.53
2022-08-29T05:21:57.841Z,15.17
2022-08-29T05:23:00.139Z,15.73
2022-08-29T05:24:07.044Z,17.50
2022-08-29T05:25:15.811Z,16.83
2022-08-29T05:26:19.683Z,20.80
2022-08-29T05:27:22.730Z,15.77
2022-08-29T05:28:25.557Z,17.17
2022-08-29T05:29:27.357Z,15.80
2022-08-29T05:30:34.565Z,18.67
2022-08-29T05:31:41.881Z,28.03
2022-08-29T05:32:44.010Z,15.20
2022-08-29T05:33:45.582Z,18.13
2022-08-29T05:34:48.867Z,23.97
2022-08-29T05:35:50.467Z,15.57
2022-08-29T05:36:52.111Z,19.80
2022-08-29T05:37:53.649Z,18.30
2022-08-29T05:38:55.534Z,15.93
2022-08-29T05:39:57.188Z,18.70
2022-08-29T05:40:58.711Z,21.83
2022-08-29T05:42:01.286Z,16.77
2022-08-29T05:43:03.064Z,16.03
2022-08-29T05:44:04.622Z,19.03
2022-08-29T05:45:07.339Z,18.90
2022-08-29T05:46:10.028Z,19.53
2022-08-29T05:47:13.959Z,18.50
2022-08-29T05:48:17.345Z,19.07
2022-08-29T05:49:19.145Z,20.00
2022-08-29T05:50:20.687Z,18.20
2022-08-29T05:51:24.227Z,17.00
2022-08-29T05:52:26.695Z,25.60
2022-08-29T05:53:28.885Z,16.37
2022-08-29T05:54:34.338Z,20.90
2022-08-29T05:55:40.860Z,22.77
2022-08-29T05:56:42.911Z,15.87
2022-08-29T05:57:44.449Z,27.73
2022-08-29T05:58:45.915Z,17.43
2022-08-29T05:59:49.598Z,19.07
2022-08-29T06:00:51.118Z,25.37
2022-08-29T06:01:52.619Z,17.00
2022-08-29T06:02:54.961Z,17.20
2022-08-29T06:03:57.993Z,16.10
2022-08-29T06:04:59.675Z,17.10
2022-08-29T06:06:01.248Z,23.80
2022-08-29T06:07:04.708Z,15.03
2022-08-29T06:08:07.264Z,16.97
2022-08-29T06:09:09.305Z,17.93
2022-08-29T06:10:10.863Z,17.70
2022-08-29T06:11:20.981Z,13.13
2022-08-29T06:12:24.410Z,21.07
2022-08-29T06:13:26.678Z,20.70
2022-08-29T06:14:28.873Z,19.80
2022-08-29T06:15:30.981Z,18.73
2022-08-29T06:16:32.867Z,15.10
2022-08-29T06:17:35.239Z,15.83
2022-08-29T06:18:36.844Z,19.50
2022-08-29T06:19:39.672Z,20.47
2022-08-29T06:20:41.467Z,13.13
2022-08-29T06:21:43.091Z,22.13
2022-08-29T06:22:44.603Z,17.30
2022-08-29T06:23:47.438Z,12.27
2022-08-29T06:24:53.277Z,15.20
2022-08-29T06:25:59.087Z,10.67
2022-08-29T06:27:01.856Z,14.20
2022-08-29T06:28:03.688Z,14.03
2022-08-29T06:29:08.095Z,10.80
2022-08-29T06:30:09.823Z,11.73
2022-08-29T06:31:14.174Z,16.20
2022-08-29T06:32:15.840Z,15.73
2022-08-29T06:33:17.525Z,15.50
2022-08-29T06:34:19.120Z,13.57
2022-08-29T06:35:20.677Z,20.43
2022-08-29T06:36:22.608Z,16.33
2022-08-29T06:37:24.393Z,23.13
2022-08-29T06:38:25.899Z,25.77
2022-08-29T06:39:27.441Z,16.17
2022-08-29T06:40:29.007Z,18.93
2022-08-29T06:41:30.817Z,22.10
2022-08-29T06:42:32.306Z,12.13
2022-08-29T06:43:34.286Z,19.57
2022-08-29T06:44:35.966Z,18.93
2022-08-29T06:45:42.466Z,14.40
2022-08-29T06:46:47.927Z,11.40
2022-08-29T06:47:49.498Z,14.03
2022-08-29T06:48:51.860Z,14.87
2022-08-29T06:49:53.375Z,9.90
2022-08-29T06:50:54.977Z,12.20
2022-08-29T06:51:58.268Z,9.07
2022-08-29T06:53:14.725Z,13.93
2022-08-29T06:54:25.234Z,10.00
2022-08-29T06:55:29.933Z,9.83
2022-08-29T06:56:32.424Z,8.60
2022-08-29T06:57:34.026Z,12.33
2022-08-29T06:58:36.054Z,8.60
2022-08-29T06:59:37.710Z,10.07
2022-08-29T07:00:47.433Z,10.73
2022-08-29T07:01:51.124Z,7.97
2022-08-29T07:02:53.395Z,8.50
2022-08-29T07:03:56.979Z,7.17
2022-08-29T07:04:58.546Z,11.90
2022-08-29T07:06:00.492Z,11.17
2022-08-29T07:07:02.027Z,7.30
2022-08-29T07:08:03.946Z,12.10
2022-08-29T07:09:06.399Z,7.23
2022-08-29T07:10:09.122Z,11.60
2022-08-29T07:11:11.598Z,9.87
2022-08-29T07:12:13.170Z,10.30
2022-08-29T07:13:14.813Z,7.87
2022-08-29T07:14:16.626Z,5.80
2022-08-29T07:15:19.431Z,5.67
2022-08-29T07:16:21.127Z,7.53
2022-08-29T07:17:25.848Z,7.67
2022-08-29T07:18:28.031Z,13.80
2022-08-29T07:19:29.541Z,5.57
2022-08-29T07:20:31.100Z,8.70
2022-08-29T07:21:33.072Z,11.73
2022-08-29T07:22:35.475Z,13.60
2022-08-29T07:23:37.633Z,10.23
2022-08-29T07:24:39.157Z,19.20
2022-08-29T07:25:40.649Z,9.13
2022-08-29T07:26:44.163Z,6.10
2022-08-29T07:27:46.786Z,5.13
2022-08-29T07:28:58.639Z,8.90
2022-08-29T07:30:03.056Z,13.07
2022-08-29T07:31:06.111Z,12.47
2022-08-29T07:32:07.937Z,9.07
2022-08-29T07:33:09.501Z,8.53
2022-08-29T07:34:11.229Z,6.43
2022-08-29T07:35:18.380Z,6.47
2022-08-29T07:36:26.156Z,6.03
2022-08-29T07:37:27.768Z,7.30
2022-08-29T07:38:30.831Z,6.43
2022-08-29T07:39:32.759Z,9.80
2022-08-29T07:40:34.362Z,4.90
2022-08-29T07:41:37.671Z,6.83
2022-08-29T07:42:39.513Z,6.93
2022-08-29T07:43:42.709Z,7.77
2022-08-29T07:44:44.470Z,9.87
2022-08-29T07:45:46.068Z,12.53
2022-08-29T07:46:47.656Z,5.83
2022-08-29T07:47:49.214Z,10.63
2022-08-29T07:48:52.684Z,11.97
2022-08-29T07:49:54.516Z,4.70
2022-08-29T07:50:56.030Z,6.73
2022-08-29T07:51:57.681Z,6.13
2022-08-29T07:52:59.198Z,5.63
2022-08-29T07:54:00.766Z,6.50
2022-08-29T07:55:05.308Z,14.43
2022-08-29T07:56:09.767Z,4.80
2022-08-29T07:57:11.632Z,4.87
2022-08-29T07:58:13.175Z,4.40
2022-08-29T07:59:15.309Z,7.63
2022-08-29T08:00:17.203Z,7.27
2022-08-29T08:01:21.569Z,5.23
2022-08-29T08:02:23.543Z,6.30
2022-08-29T08:03:27.060Z,6.60
2022-08-29T08:04:28.628Z,5.70
2022-08-29T08:05:30.313Z,8.60
2022-08-29T08:06:34.431Z,6.80
2022-08-29T08:07:39.576Z,13.07
2022-08-29T08:08:44.906Z,10.10
2022-08-29T08:09:48.398Z,9.20
2022-08-29T08:10:52.145Z,6.47
2022-08-29T08:11:54.111Z,6.23
2022-08-29T08:12:55.636Z,9.20
2022-08-29T08:13:57.812Z,4.03
2022-08-29T08:14:59.491Z,4.00
2022-08-29T08:16:05.882Z,9.60
2022-08-29T08:17:07.408Z,6.80
2022-08-29T08:18:09.118Z,8.20
2022-08-29T08:19:10.715Z,6.50
2022-08-29T08:20:12.389Z,12.60
2022-08-29T08:21:14.365Z,7.53
2022-08-29T08:22:15.987Z,10.13
2022-08-29T08:23:19.029Z,6.87
2022-08-29T08:24:21.296Z,5.30
2022-08-29T08:25:24.404Z,3.83
2022-08-29T08:26:26.338Z,6.33
2022-08-29T08:27:27.976Z,3.80
2022-08-29T08:28:30.591Z,8.13
2022-08-29T08:29:32.148Z,7.00
2022-08-29T08:30:35.752Z,9.07
2022-08-29T08:31:42.962Z,6.00
2022-08-29T08:32:48.020Z,4.63
2022-08-29T08:33:51.959Z,14.27
2022-08-29T08:34:54.302Z,12.13
2022-08-29T08:35:57.261Z,4.17
2022-08-29T08:36:59.023Z,7.47
2022-08-29T08:38:01.891Z,11.53
2022-08-29T08:39:03.682Z,8.00
2022-08-29T08:40:06.613Z,9.00
2022-08-29T08:41:27.537Z,13.90
2022-08-29T08:42:44.011Z,7.40
2022-08-29T08:43:51.934Z,12.50
2022-08-29T08:45:06.732Z,10.03
2022-08-29T08:46:08.423Z,6.00
2022-08-29T08:47:12.643Z,6.17
2022-08-29T08:48:30.926Z,12.97
2022-08-29T08:49:32.366Z,3.83
2022-08-29T08:50:43.267Z,8.63
2022-08-29T08:51:51.003Z,7.20
2022-08-29T08:53:07.352Z,9.93
2022-08-29T08:54:20.101Z,12.77
2022-08-29T08:55:41.378Z,4.43
2022-08-29T08:56:46.863Z,3.73
2022-08-29T08:58:09.180Z,4.53
2022-08-29T08:59:18.574Z,7.27
2022-08-29T09:00:20.474Z,3.30
2022-08-29T09:01:31.470Z,8.00
2022-08-29T09:02:35.214Z,8.20
2022-08-29T09:04:14.417Z,14.60
2022-08-29T09:05:34.827Z,6.67
2022-08-29T09:06:53.336Z,9.73
2022-08-29T09:07:57.623Z,4.80
2022-08-29T09:09:17.517Z,4.13
2022-08-29T09:10:31.440Z,5.93
2022-08-29T09:12:03.354Z,8.13
2022-08-29T09:13:08.142Z,11.00
2022-08-29T09:14:26.638Z,6.53
2022-08-29T09:15:38.430Z,8.90
2022-08-29T09:16:48.637Z,8.93
2022-08-29T09:17:57.704Z,10.50
2022-08-29T09:19:03.980Z,6.93
2022-08-29T09:20:10.765Z,12.73
2022-08-29T09:21:39.390Z,3.90
2022-08-29T09:22:40.623Z,4.47
2022-08-29T09:23:44.421Z,9.90
2022-08-29T09:24:56.597Z,5.90
2022-08-29T09:25:58.195Z,8.40
2022-08-29T09:26:59.790Z,6.97
2022-08-29T09:28:02.354Z,5.97
2022-08-29T09:29:04.012Z,9.40
2022-08-29T09:30:05.829Z,9.10
2022-08-29T09:31:25.820Z,7.93
2022-08-29T09:32:27.537Z,6.30
2022-08-29T09:33:42.606Z,4.57
2022-08-29T09:35:08.014Z,10.10
2022-08-29T09:36:17.882Z,7.20
2022-08-29T09:37:34.393Z,6.00
2022-08-29T09:38:36.043Z,12.73
2022-08-29T09:39:37.680Z,11.03
2022-08-29T09:40:44.929Z,4.10
2022-08-29T09:42:08.126Z,17.80
2022-08-29T09:43:36.220Z,8.00
2022-08-29T09:44:39.367Z,4.47
2022-08-29T09:45:41.000Z,18.07
2022-08-29T09:46:42.837Z,7.37
2022-08-29T09:47:45.241Z,6.10
2022-08-29T09:48:53.696Z,17.10
2022-08-29T09:50:24.646Z,7.57
2022-08-29T09:51:26.255Z,6.67
2022-08-29T09:52:28.264Z,5.73
2022-08-29T09:53:30.417Z,4.03
2022-08-29T09:54:32.325Z,7.10
2022-08-29T09:55:35.490Z,4.83
2022-08-29T09:56:40.769Z,7.70
2022-08-29T09:57:48.410Z,7.90
2022-08-29T09:59:11.254Z,6.63
2022-08-29T10:00:21.208Z,9.53
2022-08-29T10:01:28.146Z,8.20
2022-08-29T10:02:43.842Z,3.63
2022-08-29T10:03:58.533Z,6.17
2022-08-29T10:05:06.702Z,5.47
2022-08-29T10:06:23.111Z,15.33
2022-08-29T10:07:28.698Z,6.73
2022-08-29T10:08:36.292Z,4.03
2022-08-29T10:09:38.045Z,9.13
2022-08-29T10:10:52.747Z,4.13
2022-08-29T10:12:07.922Z,5.67
2022-08-29T10:13:22.154Z,13.00
2022-08-29T10:14:38.358Z,4.27
2022-08-29T10:15:50.847Z,19.07
2022-08-29T10:17:20.640Z,3.97
2022-08-29T10:18:44.260Z,8.43
2022-08-29T10:19:46.190Z,5.43
2022-08-29T10:20:56.085Z,5.30
2022-08-29T10:22:17.097Z,7.50
2022-08-29T10:23:48.096Z,9.73
2022-08-29T10:25:28.669Z,5.65
2022-08-29T10:26:38.301Z,9.88
2022-08-29T10:27:48.563Z,10.20
2022-08-29T10:29:10.387Z,10.27
2022-08-29T10:30:17.407Z,7.38
2022-08-29T10:31:34.177Z,6.43
2022-08-29T10:32:52.996Z,6.38
2022-08-29T10:34:25.733Z,4.93
2022-08-29T10:35:33.282Z,5.13
2022-08-29T10:36:38.668Z,5.47
2022-08-29T10:38:04.023Z,10.93
2022-08-29T10:39:43.927Z,8.10
2022-08-29T10:41:02.313Z,9.57
2022-08-29T10:42:16.454Z,9.80
2022-08-29T10:43:45.324Z,6.85
2022-08-29T10:44:50.321Z,10.23
2022-08-29T10:46:06.584Z,8.57
2022-08-29T10:47:20.257Z,8.00
2022-08-29T10:48:30.273Z,12.93
2022-08-29T10:49:31.787Z,10.40
2022-08-29T10:50:46.392Z,4.97
2022-08-29T10:51:53.668Z,5.25
2022-08-29T10:53:25.533Z,10.55
2022-08-29T10:54:39.193Z,7.40
2022-08-29T10:55:56.009Z,12.18
2022-08-29T10:56:59.679Z,3.40
2022-08-29T10:58:20.296Z,12.90
2022-08-29T10:59:35.150Z,4.35
2022-08-29T11:00:46.575Z,3.60
2022-08-29T11:02:05.260Z,9.48
2022-08-29T11:03:35.861Z,7.78
2022-08-29T11:04:39.156Z,7.60
2022-08-29T11:05:46.668Z,7.05
2022-08-29T11:06:59.647Z,10.60
2022-08-29T11:08:01.192Z,7.85
2022-08-29T11:09:17.746Z,12.43
2022-08-29T11:10:31.046Z,5.07
2022-08-29T11:11:36.431Z,11.98
2022-08-29T11:12:49.900Z,11.35
2022-08-29T11:14:01.151Z,7.70
2022-08-29T11:15:15.362Z,5.72
2022-08-29T11:16:33.950Z,3.40
2022-08-29T11:17:40.731Z,4.38
2022-08-29T11:18:53.025Z,17.95
2022-08-29T11:20:05.069Z,4.03
2022-08-29T11:21:20.996Z,10.90
2022-08-29T11:22:29.179Z,5.20
2022-08-29T11:23:37.707Z,10.20
2022-08-29T11:24:43.001Z,8.82
2022-08-29T11:25:48.240Z,6.75
2022-08-29T11:27:15.956Z,5.97
2022-08-29T11:28:29.057Z,5.25
2022-08-29T11:30:07.284Z,6.57
2022-08-29T11:31:46.342Z,14.15
2022-08-29T11:32:50.916Z,4.87
2022-08-29T11:34:22.604Z,7.47
2022-08-29T11:35:43.767Z,7.20
2022-08-29T11:37:20.088Z,7.50
2022-08-29T11:38:50.230Z,11.37
2022-08-29T11:39:57.777Z,7.20
2022-08-29T11:41:30.632Z,4.72
2022-08-29T11:42:52.676Z,7.97
2022-08-29T11:44:09.297Z,5.47
2022-08-29T11:45:14.700Z,9.27
2022-08-29T11:46:30.036Z,6.35
2022-08-29T11:47:46.818Z,8.13
2022-08-29T11:48:55.758Z,7.05
2022-08-29T11:50:29.175Z,5.10
2022-08-29T11:51:37.466Z,3.83
2022-08-29T11:52:50.376Z,7.30
2022-08-29T11:53:51.928Z,5.38
2022-08-29T11:55:24.872Z,6.13
2022-08-29T11:56:28.434Z,5.78
2022-08-29T11:57:31.737Z,6.32
2022-08-29T11:58:38.845Z,7.97
2022-08-29T11:59:49.375Z,8.35
2022-08-29T12:00:56.146Z,10.25
2022-08-29T12:02:01.256Z,4.95
2022-08-29T12:03:07.333Z,7.20
2022-08-29T12:04:53.367Z,10.02
2022-08-29T12:06:18.192Z,11.87
2022-08-29T12:07:22.145Z,5.43
2022-08-29T12:08:37.280Z,6.30
2022-08-29T12:09:50.421Z,8.00
2022-08-29T12:10:56.406Z,5.83
2022-08-29T12:12:04.436Z,6.83
2022-08-29T12:13:06.818Z,5.70
2022-08-29T12:14:08.411Z,4.68
2022-08-29T12:15:28.103Z,4.40
2022-08-29T12:16:49.746Z,5.53
2022-08-29T12:18:01.875Z,10.43
2022-08-29T12:19:47.124Z,5.93
2022-08-29T12:20:52.405Z,5.75
2022-08-29T12:21:54.080Z,4.03
2022-08-29T12:23:00.443Z,4.10
2022-08-29T12:24:04.695Z,6.67
2022-08-29T12:25:27.224Z,8.88
2022-08-29T12:26:40.322Z,4.82
2022-08-29T12:28:02.130Z,5.50
2022-08-29T12:29:10.432Z,8.27
2022-08-29T12:30:14.377Z,12.15
2022-08-29T12:31:34.248Z,7.03
2022-08-29T12:32:45.527Z,6.75
2022-08-29T12:34:25.506Z,5.30
2022-08-29T12:35:56.264Z,13.85
2022-08-29T12:37:16.203Z,5.40
2022-08-29T12:38:31.101Z,5.60
2022-08-29T12:40:11.179Z,6.88
2022-08-29T12:41:48.533Z,10.65
2022-08-29T12:43:10.646Z,4.53
2022-08-29T12:44:16.506Z,7.38
2022-08-29T12:45:26.695Z,5.85
2022-08-29T12:46:40.629Z,7.00
2022-08-29T12:47:49.166Z,7.07
2022-08-29T12:48:57.754Z,4.13
2022-08-29T12:50:16.344Z,4.30
2022-08-29T12:51:37.070Z,5.70
2022-08-29T12:52:38.643Z,6.00
2022-08-29T12:53:40.279Z,4.03
2022-08-29T12:54:42.003Z,7.47
2022-08-29T12:55:53.590Z,5.20
2022-08-29T12:56:57.974Z,9.93
2022-08-29T12:58:00.048Z,4.90
2022-08-29T12:59:04.932Z,6.60
2022-08-29T13:00:15.776Z,7.37
2022-08-29T13:01:49.907Z,4.73
2022-08-29T13:02:58.541Z,7.03
2022-08-29T13:04:13.100Z,8.67
2022-08-29T13:05:25.547Z,7.30
2022-08-29T13:06:32.152Z,8.27
2022-08-29T13:07:33.731Z,12.33
2022-08-29T13:08:39.234Z,11.67
2022-08-29T13:09:45.111Z,7.77
2022-08-29T13:11:07.561Z,11.10
2022-08-29T13:12:14.760Z,8.23
2022-08-29T13:13:20.760Z,4.90
2022-08-29T13:14:23.723Z,4.33
2022-08-29T13:15:30.928Z,11.73
2022-08-29T13:16:34.443Z,7.13
2022-08-29T13:17:41.740Z,4.10
2022-08-29T13:19:00.232Z,6.97
2022-08-29T13:20:45.962Z,4.80
2022-08-29T13:21:47.679Z,8.55
2022-08-29T13:22:49.467Z,4.63
2022-08-29T13:24:03.000Z,5.63
2022-08-29T13:25:05.966Z,5.25
2022-08-29T13:26:10.564Z,13.53
2022-08-29T13:27:24.599Z,7.27
2022-08-29T13:28:37.528Z,5.50
2022-08-29T13:29:41.867Z,7.97
2022-08-29T13:30:43.513Z,6.83
2022-08-29T13:32:09.091Z,5.72
2022-08-29T13:33:27.922Z,10.30
2022-08-29T13:34:37.215Z,10.13
2022-08-29T13:35:38.890Z,8.63
2022-08-29T13:37:07.714Z,4.23
2022-08-29T13:38:21.925Z,7.30
2022-08-29T13:39:27.868Z,6.63
2022-08-29T13:40:43.682Z,9.53
2022-08-29T13:41:48.952Z,5.50
2022-08-29T13:42:50.684Z,5.93
2022-08-29T13:43:52.915Z,6.77
2022-08-29T13:45:00.833Z,8.13
2022-08-29T13:46:25.391Z,6.72
2022-08-29T13:47:45.982Z,3.78
2022-08-29T13:48:58.785Z,6.60
2022-08-29T13:50:05.639Z,7.05
2022-08-29T13:51:08.461Z,4.60
2022-08-29T13:52:11.597Z,10.00
2022-08-29T13:53:13.331Z,4.15
2022-08-29T13:54:15.245Z,3.90
2022-08-29T13:55:16.997Z,4.15
2022-08-29T13:56:22.471Z,10.80
2022-08-29T13:57:26.651Z,3.88
2022-08-29T13:58:30.317Z,6.38
2022-08-29T13:59:35.951Z,12.43
2022-08-29T14:00:38.057Z,8.05
2022-08-29T14:03:01.496Z,5.25
2022-08-29T14:04:27.114Z,8.45
2022-08-29T14:05:25.048Z,6.07
2022-08-29T14:06:27.896Z,6.28
2022-08-29T14:07:31.282Z,6.38
2022-08-29T14:08:34.173Z,5.60
2022-08-29T14:09:39.308Z,11.00
2022-08-29T14:10:41.023Z,12.13
2022-08-29T14:11:45.355Z,4.15
2022-08-29T14:12:47.180Z,4.93
2022-08-29T14:13:49.353Z,4.97
2022-08-29T14:14:50.946Z,10.18
2022-08-29T14:15:53.737Z,6.77
2022-08-29T14:16:56.777Z,5.20
2022-08-29T14:17:58.607Z,4.47
2022-08-29T14:19:01.780Z,9.17
2022-08-29T14:20:04.763Z,6.20
2022-08-29T14:21:06.793Z,4.10
2022-08-29T14:22:08.471Z,14.93
2022-08-29T14:23:10.058Z,3.50
2022-08-29T14:24:11.584Z,4.03
2022-08-29T14:25:15.128Z,4.10
2022-08-29T14:26:17.365Z,4.25
2022-08-29T14:27:20.793Z,5.38
2022-08-29T14:28:22.551Z,6.70